Time;durP1;ratioP1;P1;durP2;ratioP2;P2;SDS_P1;SDS_P2;PMS_P1;PMS_P2;Temp;Humidity;BMP_temperature;BMP_pressure;BME280_temperature;BME280_humidity;BME280_pressure;Samples;Min_cycle;Max_cycle;Signal;HPM_P1;HPM_P2
2023/12/29 00:01:30;;;;;;;4.95;2.35;;;;;;;9.44;100.00;100580.59;10504943;28;20090;-82
2023/12/29 00:06:30;;;;;;;10.05;4.05;;;;;;;9.45;100.00;100574.53;10486689;28;20432;-82
2023/12/29 00:11:31;;;;;;;6.30;2.58;;;;;;;9.50;100.00;100559.97;10510851;28;20033;-82
2023/12/29 00:16:32;;;;;;;7.65;3.10;;;;;;;9.43;100.00;100560.50;10502841;28;20028;-82
2023/12/29 00:21:32;;;;;;;7.78;4.13;;;;;;;9.45;100.00;100568.41;10509260;28;20517;-82
2023/12/29 00:26:33;;;;;;;4.35;2.47;;;;;;;9.40;100.00;100561.25;10501491;28;20045;-82
2023/12/29 00:31:34;;;;;;;7.25;2.40;;;;;;;9.43;100.00;100539.63;10490572;28;20047;-82
2023/12/29 00:36:34;;;;;;;5.85;3.05;;;;;;;9.44;100.00;100537.88;10485118;28;20060;-80
2023/12/29 00:41:35;;;;;;;6.38;2.33;;;;;;;9.44;100.00;100540.50;10507847;28;20051;-82
2023/12/29 00:46:35;;;;;;;12.45;3.92;;;;;;;9.39;100.00;100529.84;10501285;28;20036;-84
2023/12/29 00:51:41;;;;;;;4.78;2.25;;;;;;;9.34;100.00;100531.34;10473872;28;20127;-82
2023/12/29 00:56:41;;;;;;;10.02;2.08;;;;;;;9.29;100.00;100510.22;10484428;28;20086;-81
2023/12/29 01:01:43;;;;;;;9.98;2.83;;;;;;;9.25;100.00;100498.75;10495085;28;20060;-81
2023/12/29 01:06:44;;;;;;;6.72;2.58;;;;;;;9.31;100.00;100492.91;10501744;28;20040;-82
2023/12/29 01:11:44;;;;;;;9.95;2.80;;;;;;;9.28;100.00;100492.75;10490518;28;20047;-82
2023/12/29 01:16:45;;;;;;;16.83;2.72;;;;;;;9.27;100.00;100492.72;10497486;28;20123;-83
2023/12/29 01:21:46;;;;;;;8.40;3.22;;;;;;;9.25;100.00;100492.63;10490931;28;20108;-81
2023/12/29 01:26:46;;;;;;;6.95;3.05;;;;;;;9.24;100.00;100485.59;10482632;28;20040;-80
2023/12/29 01:31:47;;;;;;;17.73;3.63;;;;;;;9.30;100.00;100475.44;10488915;28;20139;-83
2023/12/29 01:36:47;;;;;;;9.93;3.42;;;;;;;9.19;100.00;100498.47;10499478;28;20059;-82
2023/12/29 01:41:48;;;;;;;8.48;3.15;;;;;;;9.14;100.00;100483.38;10492285;28;20111;-83
2023/12/29 01:46:54;;;;;;;15.43;3.92;;;;;;;8.97;100.00;100509.56;10499847;28;20480;-83
2023/12/29 01:51:55;;;;;;;5.00;2.22;;;;;;;8.72;100.00;100512.72;10492969;28;20115;-81
2023/12/29 01:56:57;;;;;;;6.22;2.28;;;;;;;8.55;100.00;100498.81;10482030;28;20442;-81
2023/12/29 02:01:57;;;;;;;9.85;4.03;;;;;;;8.47;100.00;100499.28;10459816;28;20036;-83
2023/12/29 02:06:58;;;;;;;14.68;3.75;;;;;;;8.65;100.00;100486.31;10507892;28;20060;-83
2023/12/29 02:11:59;;;;;;;6.90;2.95;;;;;;;8.77;100.00;100504.28;10476976;28;20048;-84
2023/12/29 02:17:35;;;;;;;12.70;3.20;;;;;;;8.90;100.00;100489.22;10493435;28;20059;-83
2023/12/29 02:22:36;;;;;;;12.65;3.50;;;;;;;8.99;100.00;100484.44;10446842;28;20037;-80
2023/12/29 02:28:01;;;;;;;5.72;2.88;;;;;;;9.04;100.00;100469.91;10496932;28;20040;-82
2023/12/29 02:33:04;;;;;;;10.27;3.65;;;;;;;9.09;100.00;100462.28;10503304;28;20535;-82
2023/12/29 02:38:04;;;;;;;5.00;2.72;;;;;;;9.06;100.00;100473.47;10470887;28;20045;-81
2023/12/29 02:43:05;;;;;;;7.40;2.60;;;;;;;9.05;100.00;100481.25;10501990;28;20052;-83
2023/12/29 02:48:06;;;;;;;9.38;3.95;;;;;;;9.13;100.00;100463.31;10467227;28;20047;-82
2023/12/29 02:53:06;;;;;;;18.63;4.03;;;;;;;9.19;100.00;100474.97;10496819;28;20032;-82
2023/12/29 02:58:07;;;;;;;4.03;2.53;;;;;;;9.15;100.00;100464.28;10488009;28;20496;-83
2023/12/29 03:03:07;;;;;;;16.92;3.35;;;;;;;9.17;100.00;100460.03;10501379;28;20076;-81
2023/12/29 03:08:08;;;;;;;5.05;2.10;;;;;;;9.20;100.00;100470.63;10478854;28;20556;-83
2023/12/29 03:13:08;;;;;;;7.25;2.45;;;;;;;9.21;100.00;100480.25;10492317;28;20036;-83
2023/12/29 03:18:09;;;;;;;4.55;2.30;;;;;;;9.26;100.00;100476.13;10463707;28;20074;-83
2023/12/29 03:23:09;;;;;;;7.93;3.60;;;;;;;9.23;100.00;100486.44;10509578;28;20185;-82
2023/12/29 03:28:10;;;;;;;4.53;1.98;;;;;;;9.23;100.00;100486.44;10499632;28;20442;-82
2023/12/29 03:33:10;;;;;;;13.10;3.47;;;;;;;9.22;100.00;100492.47;10490677;28;20052;-83
2023/12/29 03:38:12;;;;;;;8.35;2.03;;;;;;;9.17;100.00;100476.59;10480936;28;20542;-83
2023/12/29 03:43:13;;;;;;;11.07;3.60;;;;;;;9.15;100.00;100487.78;10510466;28;20097;-82
2023/12/29 03:48:13;;;;;;;7.28;2.70;;;;;;;9.08;100.00;100469.22;10496725;28;20137;-82
2023/12/29 03:53:15;;;;;;;10.45;3.53;;;;;;;8.92;100.00;100449.34;10505006;28;20089;-82
2023/12/29 03:58:15;;;;;;;5.93;1.97;;;;;;;8.79;100.00;100473.06;10503508;28;20032;-82
2023/12/29 04:03:16;;;;;;;9.50;3.83;;;;;;;8.67;100.00;100468.13;10505586;28;20135;-83
2023/12/29 04:08:16;;;;;;;8.60;2.50;;;;;;;8.59;100.00;100467.75;10468588;28;20131;-83
2023/12/29 04:13:17;;;;;;;9.45;2.70;;;;;;;8.60;100.00;100468.63;10508396;28;20058;-82
2023/12/29 04:18:18;;;;;;;6.57;2.63;;;;;;;8.64;100.00;100461.06;10493366;28;20050;-81
2023/12/29 04:23:18;;;;;;;10.07;2.83;;;;;;;8.59;100.00;100441.69;10488143;28;20115;-83
2023/12/29 04:28:19;;;;;;;10.45;3.58;;;;;;;8.70;100.00;100426.53;10483876;28;20039;-81
2023/12/29 04:33:19;;;;;;;11.07;3.20;;;;;;;8.80;100.00;100448.75;10484425;28;20032;-80
2023/12/29 04:38:20;;;;;;;8.80;3.17;;;;;;;8.74;100.00;100448.47;10501582;28;20113;-80
2023/12/29 04:43:21;;;;;;;7.22;3.33;;;;;;;8.78;100.00;100464.31;10484219;28;20036;-84
2023/12/29 04:48:21;;;;;;;14.63;3.70;;;;;;;8.80;100.00;100456.59;10477117;28;20059;-80
2023/12/29 04:53:22;;;;;;;7.00;1.98;;;;;;;8.81;100.00;100463.59;10501144;28;20040;-83
2023/12/29 04:58:22;;;;;;;11.45;3.33;;;;;;;8.83;100.00;100448.91;10496917;28;20044;-79
2023/12/29 05:03:23;;;;;;;7.07;3.00;;;;;;;8.83;100.00;100448.91;10490114;28;20093;-81
2023/12/29 05:08:23;;;;;;;5.93;2.00;;;;;;;8.86;100.00;100453.34;10505249;28;20131;-79
2023/12/29 05:13:24;;;;;;;12.43;3.47;;;;;;;8.79;100.00;100457.41;10500628;28;20498;-79
2023/12/29 05:18:26;;;;;;;8.90;3.17;;;;;;;8.81;100.00;100459.25;10503889;28;20039;-79
2023/12/29 05:23:27;;;;;;;8.98;2.97;;;;;;;8.80;100.00;100451.38;10483874;28;20480;-79
2023/12/29 05:28:27;;;;;;;9.32;3.78;;;;;;;8.73;100.00;100444.94;10485196;28;20114;-79
2023/12/29 05:33:28;;;;;;;7.00;2.45;;;;;;;8.69;100.00;100444.72;10499183;28;20124;-81
2023/12/29 05:38:28;;;;;;;4.93;2.35;;;;;;;8.68;100.00;100456.88;10507631;28;20036;-79
2023/12/29 05:43:29;;;;;;;8.00;2.38;;;;;;;8.65;100.00;100451.50;10504320;28;20048;-80
2023/12/29 05:48:30;;;;;;;10.35;3.35;;;;;;;8.70;100.00;100457.84;10482083;28;20048;-79
2023/12/29 05:53:30;;;;;;;10.43;3.38;;;;;;;8.57;100.00;100453.75;10508667;28;20032;-80
2023/12/29 05:58:31;;;;;;;14.50;3.40;;;;;;;8.59;100.00;100438.16;10508340;28;20048;-78
2023/12/29 06:03:32;;;;;;;10.98;2.25;;;;;;;8.59;100.00;100451.19;10478828;28;20387;-82
2023/12/29 06:08:32;;;;;;;7.57;2.05;;;;;;;8.72;100.00;100453.59;10499009;28;20831;-81
2023/12/29 06:13:33;;;;;;;10.35;2.92;;;;;;;8.80;100.00;100452.25;10475404;28;20097;-83
2023/12/29 06:18:34;;;;;;;6.70;2.05;;;;;;;8.83;100.00;100422.81;10486066;28;20105;-81
2023/12/29 06:23:34;;;;;;;9.57;2.55;;;;;;;8.86;100.00;100440.31;10486089;28;20046;-84
2023/12/29 06:28:35;;;;;;;6.25;2.40;;;;;;;8.82;100.00;100444.50;10471527;28;20043;-82
2023/12/29 06:33:35;;;;;;;4.22;2.05;;;;;;;8.67;100.00;100457.69;10462662;28;20058;-83
2023/12/29 06:38:36;;;;;;;6.72;2.50;;;;;;;8.46;100.00;100449.69;10488758;28;20400;-81
2023/12/29 06:43:37;;;;;;;6.18;2.83;;;;;;;8.20;100.00;100447.53;10497792;28;20051;-81
2023/12/29 06:48:37;;;;;;;7.95;2.78;;;;;;;8.07;100.00;100434.72;10506903;28;20032;-79
2023/12/29 06:53:38;;;;;;;8.10;3.80;;;;;;;7.89;100.00;100465.94;10492943;28;20036;-80
2023/12/29 06:58:38;;;;;;;15.45;3.25;;;;;;;7.74;100.00;100466.94;10489095;28;20036;-81
2023/12/29 07:03:39;;;;;;;9.90;3.75;;;;;;;7.71;100.00;100486.69;10482678;28;20508;-81
2023/12/29 07:08:40;;;;;;;21.20;6.15;;;;;;;7.73;100.00;100488.59;10507145;28;20118;-81
2023/12/29 07:13:40;;;;;;;9.70;3.40;;;;;;;7.64;100.00;100488.97;10492115;28;20047;-79
2023/12/29 07:18:42;;;;;;;8.25;3.53;;;;;;;7.62;100.00;100479.31;10509748;28;20516;-81
2023/12/29 07:23:42;;;;;;;7.25;2.95;;;;;;;7.62;100.00;100474.09;10458911;28;20511;-79
2023/12/29 07:28:43;;;;;;;4.47;2.22;;;;;;;7.62;100.00;100469.78;10505117;28;20051;-78
2023/12/29 07:33:43;;;;;;;10.93;3.13;;;;;;;7.70;100.00;100471.88;10488759;28;20101;-78
2023/12/29 07:38:44;;;;;;;5.93;3.15;;;;;;;7.67;100.00;100484.75;10504350;28;20044;-79
2023/12/29 07:43:45;;;;;;;7.45;2.47;;;;;;;7.70;100.00;100497.94;10503947;28;20036;-78
2023/12/29 07:48:45;;;;;;;12.05;3.80;;;;;;;7.67;100.00;100488.25;10507594;28;20040;-79
2023/12/29 07:53:46;;;;;;;10.25;4.28;;;;;;;7.66;100.00;100493.38;10513136;28;20580;-80
2023/12/29 07:58:46;;;;;;;6.63;2.72;;;;;;;7.69;100.00;100496.16;10489711;28;20045;-78
2023/12/29 08:03:47;;;;;;;21.23;3.78;;;;;;;7.73;100.00;100491.19;10495975;28;20127;-81
2023/12/29 08:08:47;;;;;;;10.27;3.63;;;;;;;7.68;100.00;100494.34;10488872;28;20056;-79
2023/12/29 08:13:48;;;;;;;4.22;1.83;;;;;;;7.73;100.00;100488.59;10511189;28;20461;-78
2023/12/29 08:18:49;;;;;;;6.10;2.08;;;;;;;7.80;100.00;100476.78;10457423;28;20125;-80
2023/12/29 08:23:49;;;;;;;6.30;2.20;;;;;;;7.90;100.00;100499.00;10442724;28;20037;-80
2023/12/29 08:28:50;;;;;;;3.35;1.60;;;;;;;7.94;100.00;100491.41;10432050;28;20188;-80
2023/12/29 08:33:51;;;;;;;8.10;2.53;;;;;;;8.01;100.00;100504.75;10440729;28;20127;-79
2023/12/29 08:38:52;;;;;;;3.78;1.90;;;;;;;8.07;100.00;100486.84;10438097;28;20111;-81
2023/12/29 08:43:53;;;;;;;2.47;1.25;;;;;;;7.98;100.00;100483.75;10386942;28;20037;-78
2023/12/29 08:48:53;;;;;;;3.42;1.05;;;;;;;7.87;100.00;100464.97;10443478;28;20075;-77
2023/12/29 08:53:54;;;;;;;3.28;1.60;;;;;;;7.86;100.00;100443.22;10439350;28;20108;-78
2023/12/29 08:58:55;;;;;;;2.00;1.17;;;;;;;7.81;100.00;100482.88;10422618;28;20043;-79
2023/12/29 09:03:55;;;;;;;3.97;0.98;;;;;;;7.82;100.00;100498.59;10430877;28;20033;-78
2023/12/29 09:08:56;;;;;;;3.50;1.10;;;;;;;7.84;100.00;100477.84;10436224;28;20040;-78
2023/12/29 09:13:56;;;;;;;2.47;0.80;;;;;;;7.86;100.00;100537.00;10440988;28;20137;-78
2023/12/29 09:18:57;;;;;;;6.30;1.15;;;;;;;7.85;100.00;100540.44;10439728;28;20057;-79
2023/12/29 09:23:58;;;;;;;2.00;0.90;;;;;;;7.82;100.00;100555.91;10453850;28;20054;-82
2023/12/29 09:28:58;;;;;;;3.38;1.20;;;;;;;7.78;100.00;100539.22;10495440;28;20048;-81
2023/12/29 09:34:00;;;;;;;3.72;1.10;;;;;;;7.74;100.00;100554.59;10467478;28;20039;-78
2023/12/29 09:39:01;;;;;;;3.30;1.33;;;;;;;7.75;100.00;100577.22;10479604;28;20036;-80
2023/12/29 09:44:01;;;;;;;4.00;1.83;;;;;;;7.75;100.00;100567.72;10490291;28;20044;-79
2023/12/29 09:49:03;;;;;;;4.00;1.70;;;;;;;7.75;100.00;100561.59;10466478;28;20044;-80
2023/12/29 09:54:04;;;;;;;9.35;2.05;;;;;;;7.73;100.00;100531.97;10460366;28;20125;-80
2023/12/29 09:59:04;;;;;;;9.77;2.42;;;;;;;7.73;100.00;100534.56;10474976;28;20051;-78
2023/12/29 10:04:05;;;;;;;5.90;2.85;;;;;;;7.77;100.00;100527.03;10477889;28;20094;-78
2023/12/29 10:09:06;;;;;;;2.50;1.25;;;;;;;7.90;100.00;100541.59;10494572;28;20850;-77
2023/12/29 10:14:24;;;;;;;4.72;1.65;;;;;;;8.12;100.00;100552.25;10478340;28;20543;-78
2023/12/29 10:19:37;;;;;;;1.48;0.90;;;;;;;8.31;100.00;100556.69;10500927;28;20032;-78
2023/12/29 10:24:38;;;;;;;2.97;1.17;;;;;;;8.35;100.00;100528.28;10451894;28;20057;-78
2023/12/29 10:29:38;;;;;;;2.25;1.20;;;;;;;8.47;100.00;100528.00;10500165;27;20123;-78
2023/12/29 10:34:39;;;;;;;3.63;0.68;;;;;;;8.52;100.00;100508.28;10484133;27;20399;-79
2023/12/29 10:39:39;;;;;;;3.80;1.33;;;;;;;8.51;100.00;100500.41;10500170;28;20072;-78
2023/12/29 10:44:40;;;;;;;1.00;0.35;;;;;;;8.56;100.00;100482.34;10461812;28;20475;-78
2023/12/29 10:49:40;;;;;;;1.83;0.70;;;;;;;8.61;100.00;100473.03;10522507;27;20174;-79
2023/12/29 10:54:44;;;;;;;1.70;0.98;;;;;;;8.72;100.00;100484.03;10497213;27;20043;-78
2023/12/29 10:59:48;;;;;;;6.07;0.90;;;;;;;8.72;100.00;100495.34;10503492;27;20032;-78
2023/12/29 11:04:50;;;;;;;3.47;1.02;;;;;;;8.81;100.00;100500.13;10465109;27;20044;-81
2023/12/29 11:09:51;;;;;;;4.30;1.50;;;;;;;8.81;100.00;100497.50;10499933;27;20037;-79
2023/12/29 11:14:52;;;;;;;6.35;1.52;;;;;;;8.86;100.00;100498.63;10461870;28;20143;-82
2023/12/29 11:19:53;;;;;;;6.03;2.15;;;;;;;8.92;100.00;100504.16;10503770;27;20232;-79
2023/12/29 11:24:54;;;;;;;4.07;1.67;;;;;;;8.94;100.00;100479.03;10505874;28;20164;-78
2023/12/29 11:29:56;;;;;;;8.50;2.53;;;;;;;8.88;100.00;100490.84;10479487;27;20049;-77
2023/12/29 11:35:00;;;;;;;4.53;1.92;;;;;;;8.76;100.00;100492.06;10491005;28;20107;-79
2023/12/29 11:40:14;;;;;;;7.93;1.40;;;;;;;8.57;100.00;100494.56;10480650;28;20032;-78
2023/12/29 11:45:25;;;;;;;3.22;1.40;;;;;;;8.35;100.00;100507.41;10495011;28;20067;-79
2023/12/29 11:50:30;;;;;;;2.77;0.80;;;;;;;8.14;100.00;100515.00;10500412;28;20044;-79
2023/12/29 11:55:35;;;;;;;1.98;1.00;;;;;;;8.07;100.00;100503.38;10455937;28;20042;-77
2023/12/29 12:00:46;;;;;;;3.88;2.00;;;;;;;8.10;100.00;100518.28;10518462;28;20454;-78
2023/12/29 12:05:49;;;;;;;4.05;1.55;;;;;;;8.14;100.00;100508.91;10480698;28;20127;-78
2023/12/29 12:10:49;;;;;;;5.88;2.42;;;;;;;8.29;100.00;100517.53;10475214;28;20032;-78
2023/12/29 12:15:50;;;;;;;13.00;2.97;;;;;;;8.49;100.00;100520.28;10502266;28;20048;-79
2023/12/29 12:20:50;;;;;;;8.75;3.58;;;;;;;8.57;100.00;100505.91;10504442;28;20119;-78
2023/12/29 12:25:51;;;;;;;8.93;3.28;;;;;;;8.60;100.00;100510.38;10497546;28;20097;-79
2023/12/29 12:30:53;;;;;;;6.57;1.45;;;;;;;8.64;100.00;100514.94;10486614;28;20110;-79
2023/12/29 12:36:00;;;;;;;3.67;1.75;;;;;;;8.70;100.00;100489.16;10495613;28;20087;-77
2023/12/29 12:41:13;;;;;;;7.55;1.80;;;;;;;8.78;100.00;100477.38;10503666;28;20121;-79
2023/12/29 12:46:19;;;;;;;4.85;1.67;;;;;;;8.84;100.00;100455.00;10504928;28;20041;-77
2023/12/29 12:51:20;;;;;;;7.75;2.20;;;;;;;8.88;100.00;100459.53;10489855;28;20435;-78
2023/12/29 12:56:20;;;;;;;4.35;2.08;;;;;;;8.93;100.00;100455.44;10471355;28;20128;-78
2023/12/29 13:01:21;;;;;;;6.47;3.05;;;;;;;8.95;100.00;100449.50;10502725;28;20028;-78
2023/12/29 13:06:22;;;;;;;5.70;2.20;;;;;;;8.97;100.00;100433.88;10480961;28;20043;-78
2023/12/29 13:11:25;;;;;;;6.75;2.83;;;;;;;9.04;100.00;100430.75;10497339;27;20381;-79
2023/12/29 13:16:35;;;;;;;5.05;2.05;;;;;;;9.02;100.00;100421.06;10498121;28;20032;-78
2023/12/29 13:21:36;;;;;;;9.77;3.17;;;;;;;9.01;100.00;100429.72;10483051;28;20380;-79
2023/12/29 13:26:37;;;;;;;5.35;2.17;;;;;;;9.03;100.00;100415.03;10504351;28;20036;-78
2023/12/29 13:31:37;;;;;;;5.25;2.33;;;;;;;8.99;100.00;100400.91;10500740;28;20045;-79
2023/12/29 13:36:49;;;;;;;9.98;1.67;;;;;;;8.96;100.00;100390.34;10517746;28;20056;-78
2023/12/29 13:41:50;;;;;;;3.35;1.60;;;;;;;8.89;100.00;100394.38;10461222;28;20118;-78
2023/12/29 13:46:50;;;;;;;4.03;1.52;;;;;;;8.81;100.00;100380.09;10481100;28;20229;-78
2023/12/29 13:51:51;;;;;;;4.97;1.75;;;;;;;8.67;100.00;100371.59;10501174;28;20476;-78
2023/12/29 13:56:55;;;;;;;5.75;1.38;;;;;;;8.59;100.00;100359.91;10493437;28;20127;-80
2023/12/29 14:01:55;;;;;;;2.95;1.33;;;;;;;8.53;100.00;100350.09;10487337;28;20044;-78
2023/12/29 14:07:00;;;;;;;2.67;0.90;;;;;;;8.41;100.00;100360.78;10495739;28;20070;-79
2023/12/29 14:12:01;;;;;;;4.53;1.08;;;;;;;8.40;100.00;100363.31;10469281;28;20491;-78
2023/12/29 14:17:01;;;;;;;2.92;1.20;;;;;;;8.42;100.00;100370.38;10495472;28;20111;-78
2023/12/29 14:22:02;;;;;;;2.65;1.38;;;;;;;8.38;100.00;100373.66;10483224;28;20048;-78
2023/12/29 14:27:03;;;;;;;1.42;0.70;;;;;;;8.37;100.00;100393.66;10483115;28;20123;-79
2023/12/29 14:32:03;;;;;;;3.85;1.35;;;;;;;8.41;100.00;100389.47;10476274;28;20036;-78
2023/12/29 14:37:04;;;;;;;1.27;0.55;;;;;;;8.49;100.00;100393.38;10499286;28;20044;-82
2023/12/29 14:42:05;;;;;;;3.80;2.00;;;;;;;8.49;100.00;100401.19;10462676;28;20127;-79
2023/12/29 14:47:05;;;;;;;10.02;2.22;;;;;;;8.46;100.00;100403.63;10487479;28;20483;-82
2023/12/29 14:52:06;;;;;;;5.45;1.48;;;;;;;8.39;100.00;100409.34;10462901;28;20114;-83
2023/12/29 14:57:06;;;;;;;2.40;0.90;;;;;;;8.34;100.00;100416.06;10472827;28;20040;-79
2023/12/29 15:02:07;;;;;;;7.75;1.33;;;;;;;8.31;100.00;100418.50;10501025;28;20047;-80
2023/12/29 15:07:08;;;;;;;3.08;2.00;;;;;;;8.29;100.00;100428.88;10499712;28;20052;-79
2023/12/29 15:12:08;;;;;;;5.72;2.25;;;;;;;8.25;100.00;100420.81;10495441;28;20056;-78
2023/12/29 15:17:09;;;;;;;7.63;2.05;;;;;;;8.17;100.00;100431.75;10504715;28;20043;-78
2023/12/29 15:22:09;;;;;;;8.90;2.08;;;;;;;8.17;100.00;100439.56;10502792;28;20044;-77
2023/12/29 15:27:10;;;;;;;4.30;2.10;;;;;;;8.11;100.00;100426.22;10490291;28;20152;-77
2023/12/29 15:32:10;;;;;;;3.45;1.65;;;;;;;8.07;100.00;100434.72;10508336;28;20117;-80
2023/12/29 15:37:11;;;;;;;3.92;2.17;;;;;;;8.03;100.00;100438.88;10541488;27;20509;-80
2023/12/29 15:42:11;;;;;;;3.45;1.73;;;;;;;8.00;100.00;100430.91;10510159;28;20132;-80
2023/12/29 15:47:12;;;;;;;3.55;1.80;;;;;;;8.01;100.00;100434.41;10508417;28;20060;-78
2023/12/29 15:52:12;;;;;;;2.22;1.02;;;;;;;7.97;100.00;100422.03;10509753;28;20380;-80
2023/12/29 15:57:12;;;;;;;2.10;1.02;;;;;;;7.99;100.00;100438.63;10498151;28;20123;-79
2023/12/29 16:02:13;;;;;;;2.42;1.33;;;;;;;7.97;100.00;100440.28;10494940;28;20054;-80
2023/12/29 16:07:14;;;;;;;4.43;2.17;;;;;;;8.00;100.00;100443.03;10505514;28;20460;-79
2023/12/29 16:12:14;;;;;;;6.50;1.92;;;;;;;8.00;100.00;100433.53;10499988;28;20127;-79
2023/12/29 16:17:14;;;;;;;3.33;2.05;;;;;;;7.98;100.00;100435.16;10505449;28;20165;-79
2023/12/29 16:22:15;;;;;;;3.80;2.45;;;;;;;7.90;100.00;100436.47;10506377;28;20123;-80
2023/12/29 16:27:15;;;;;;;6.20;1.77;;;;;;;7.79;100.00;100441.09;10507038;28;20120;-78
2023/12/29 16:32:21;;;;;;;4.80;2.55;;;;;;;7.66;100.00;100423.06;10502129;28;20525;-78
2023/12/29 16:37:23;;;;;;;4.88;1.30;;;;;;;7.51;100.00;100436.19;10507224;28;20032;-77
2023/12/29 16:42:23;;;;;;;4.68;2.35;;;;;;;7.60;100.00;100441.88;10483473;28;20097;-78
2023/12/29 16:47:24;;;;;;;7.32;2.28;;;;;;;7.64;100.00;100420.38;10499805;28;20064;-78
2023/12/29 16:52:24;;;;;;;7.00;3.08;;;;;;;7.66;100.00;100423.97;10510372;28;20143;-78
2023/12/29 16:57:25;;;;;;;6.40;3.08;;;;;;;7.70;100.00;100417.19;10503512;28;20119;-79
2023/12/29 17:02:25;;;;;;;11.20;3.38;;;;;;;7.72;100.00;100402.53;10499683;28;20055;-79
2023/12/29 17:07:26;;;;;;;8.10;3.60;;;;;;;7.71;100.00;100404.25;10499411;28;20131;-79
2023/12/29 17:12:26;;;;;;;11.65;3.22;;;;;;;7.76;100.00;100388.84;10498481;28;20102;-79
2023/12/29 17:17:27;;;;;;;7.93;2.50;;;;;;;7.83;100.00;100388.34;10487628;28;20042;-79
2023/12/29 17:22:27;;;;;;;9.27;2.70;;;;;;;7.76;100.00;100387.16;10499102;28;20123;-80
2023/12/29 17:27:28;;;;;;;5.15;2.85;;;;;;;7.88;100.00;100391.19;10504955;28;20044;-79
2023/12/29 17:32:28;;;;;;;5.95;2.70;;;;;;;7.98;100.00;100395.16;10507490;28;20614;-79
2023/12/29 17:37:31;;;;;;;3.72;2.03;;;;;;;8.04;100.00;100396.38;10499284;28;20127;-79
2023/12/29 17:42:32;;;;;;;7.93;2.05;;;;;;;8.17;100.00;100403.06;10497392;28;20691;-78
2023/12/29 17:47:32;;;;;;;9.98;2.42;;;;;;;8.24;100.00;100404.28;10507305;28;20119;-80
2023/12/29 17:52:33;;;;;;;5.38;1.92;;;;;;;8.32;100.00;100397.75;10507520;28;20601;-80
2023/12/29 17:57:36;;;;;;;6.53;1.55;;;;;;;8.36;100.00;100384.03;10499262;28;20051;-79
2023/12/29 18:02:36;;;;;;;10.98;3.13;;;;;;;8.45;100.00;100390.53;10499590;28;20037;-78
2023/12/29 18:07:37;;;;;;;5.85;3.20;;;;;;;8.45;100.00;100373.13;10488199;28;20063;-78
2023/12/29 18:12:37;;;;;;;6.82;2.08;;;;;;;8.41;100.00;100363.38;10507352;28;20128;-79
2023/12/29 18:17:38;;;;;;;7.22;2.97;;;;;;;8.25;100.00;100346.13;10479863;28;20486;-80
2023/12/29 18:22:38;;;;;;;6.22;2.72;;;;;;;8.18;100.00;100365.75;10498774;28;20200;-79
2023/12/29 18:27:39;;;;;;;5.80;2.88;;;;;;;8.17;100.00;100374.41;10504702;28;20040;-78
2023/12/29 18:32:39;;;;;;;10.45;3.10;;;;;;;8.12;100.00;100361.97;10497294;28;20115;-78
2023/12/29 18:37:40;;;;;;;8.80;3.67;;;;;;;8.08;100.00;100374.84;10506758;28;20048;-77
2023/12/29 18:42:40;;;;;;;12.35;2.92;;;;;;;8.16;100.00;100364.78;10503561;28;20704;-78
2023/12/29 18:47:41;;;;;;;11.48;2.67;;;;;;;8.20;100.00;100371.94;10498357;28;20132;-78
2023/12/29 18:52:43;;;;;;;5.20;2.00;;;;;;;8.19;100.00;100367.56;10488939;28;20116;-78
2023/12/29 18:57:43;;;;;;;5.38;2.20;;;;;;;8.08;100.00;100347.88;10509970;28;20128;-79
2023/12/29 19:02:44;;;;;;;10.45;2.47;;;;;;;8.05;100.00;100366.88;10513959;27;20028;-78
2023/12/29 19:07:45;;;;;;;4.13;2.47;;;;;;;7.98;100.00;100372.59;10502381;28;20044;-78
2023/12/29 19:12:47;;;;;;;7.05;2.58;;;;;;;7.90;100.00;100387.84;10514717;28;20032;-79
2023/12/29 19:17:47;;;;;;;6.38;2.28;;;;;;;7.94;100.00;100394.13;10504270;28;20040;-79
2023/12/29 19:22:48;;;;;;;5.88;2.85;;;;;;;8.04;100.00;100408.50;10489744;28;20123;-78
2023/12/29 19:27:48;;;;;;;7.95;3.47;;;;;;;8.02;100.00;100405.81;10513814;28;20074;-78
2023/12/29 19:32:50;;;;;;;6.15;2.25;;;;;;;7.97;100.00;100399.47;10494800;28;20051;-79
2023/12/29 19:37:50;;;;;;;8.13;2.17;;;;;;;7.84;100.00;100399.69;10508349;28;20036;-79
2023/12/29 19:42:51;;;;;;;12.88;3.35;;;;;;;7.76;100.00;100407.09;10483954;28;20543;-79
2023/12/29 19:47:51;;;;;;;10.07;3.45;;;;;;;7.85;100.00;100412.75;10485950;28;20123;-79
2023/12/29 19:52:52;;;;;;;14.23;3.88;;;;;;;7.90;100.00;100418.22;10497451;28;20147;-78
2023/12/29 19:57:52;;;;;;;13.07;3.08;;;;;;;7.89;100.00;100417.31;10511063;28;20130;-78
2023/12/29 20:02:53;;;;;;;12.80;2.75;;;;;;;7.92;100.00;100414.88;10502164;28;20135;-79
2023/12/29 20:07:54;;;;;;;13.77;5.40;;;;;;;7.99;100.00;100410.88;10493080;28;20032;-78
2023/12/29 20:12:54;;;;;;;12.23;3.97;;;;;;;8.03;100.00;100402.41;10494055;28;20460;-79
2023/12/29 20:17:55;;;;;;;14.23;4.75;;;;;;;7.94;100.00;100412.34;10510084;28;20448;-78
2023/12/29 20:22:56;;;;;;;13.23;4.30;;;;;;;7.81;100.00;100409.94;10506148;28;20037;-79
2023/12/29 20:27:57;;;;;;;5.60;2.50;;;;;;;7.62;100.00;100422.00;10480164;28;20429;-78
2023/12/29 20:32:59;;;;;;;12.10;3.30;;;;;;;7.64;100.00;100426.47;10515931;28;20042;-79
2023/12/29 20:37:59;;;;;;;12.27;5.00;;;;;;;7.60;100.00;100424.50;10498505;28;20036;-78
2023/12/29 20:43:00;;;;;;;9.38;4.00;;;;;;;7.37;100.00;100438.94;10494572;28;20165;-79
2023/12/29 20:48:00;;;;;;;15.90;4.60;;;;;;;7.25;100.00;100443.47;10510578;28;20051;-79
2023/12/29 20:53:01;;;;;;;11.77;3.67;;;;;;;7.30;100.00;100449.84;10498476;28;20036;-79
2023/12/29 20:58:02;;;;;;;11.68;3.17;;;;;;;7.35;100.00;100458.78;10479970;28;20040;-80
2023/12/29 21:03:02;;;;;;;23.60;4.40;;;;;;;7.54;100.00;100444.16;10503642;28;20043;-78
2023/12/29 21:08:03;;;;;;;14.75;4.57;;;;;;;7.51;100.00;100450.06;10488317;28;20504;-79
2023/12/29 21:13:04;;;;;;;9.25;4.35;;;;;;;7.64;100.00;100454.25;10445991;28;20063;-77
2023/12/29 21:18:04;;;;;;;9.40;3.35;;;;;;;7.66;100.00;100456.91;10413781;28;20041;-79
2023/12/29 21:23:06;;;;;;;18.85;3.25;;;;;;;7.55;100.00;100472.88;10433688;28;20064;-78
2023/12/29 21:28:07;;;;;;;9.50;4.53;;;;;;;7.42;100.00;100468.72;10414400;28;20049;-79
2023/12/29 21:33:07;;;;;;;18.55;5.03;;;;;;;7.37;100.00;100482.28;10430960;28;20124;-82
2023/12/29 21:38:08;;;;;;;14.77;5.00;;;;;;;7.30;100.00;100509.72;10453414;28;20123;-78
2023/12/29 21:43:08;;;;;;;8.48;3.67;;;;;;;7.17;100.00;100505.50;10476084;28;20055;-77
2023/12/29 21:48:09;;;;;;;8.10;4.35;;;;;;;7.00;100.00;100502.88;10477625;28;20036;-77
2023/12/29 21:53:10;;;;;;;14.48;4.35;;;;;;;6.90;100.00;100503.16;10497311;28;20120;-78
2023/12/29 21:58:10;;;;;;;20.65;4.38;;;;;;;6.81;100.00;100508.75;10499289;28;20115;-78
2023/12/29 22:03:11;;;;;;;11.05;3.95;;;;;;;6.90;100.00;100529.16;10489180;28;20131;-78
2023/12/29 22:08:12;;;;;;;16.17;5.55;;;;;;;6.84;100.00;100521.03;10475475;28;20044;-78
2023/12/29 22:13:12;;;;;;;14.75;3.70;;;;;;;6.74;100.00;100517.00;10483475;28;20057;-79
2023/12/29 22:18:13;;;;;;;10.48;3.85;;;;;;;6.66;100.00;100533.88;10496517;28;20139;-80
2023/12/29 22:23:13;;;;;;;14.88;4.47;;;;;;;6.58;100.00;100543.81;10487571;28;20032;-79
2023/12/29 22:28:14;;;;;;;19.88;5.03;;;;;;;6.73;100.00;100547.31;10506648;28;20169;-79
2023/12/29 22:33:15;;;;;;;11.25;5.75;;;;;;;7.00;100.00;100546.22;10500742;28;20082;-79
2023/12/29 22:38:15;;;;;;;14.50;5.30;;;;;;;7.02;100.00;100539.41;10497228;28;20479;-80
2023/12/29 22:43:16;;;;;;;8.60;3.70;;;;;;;7.09;100.00;100535.41;10501997;28;20036;-79
2023/12/29 22:48:17;;;;;;;14.32;3.72;;;;;;;6.98;100.00;100546.13;10501002;28;20527;-79
2023/12/29 22:53:17;;;;;;;10.98;4.25;;;;;;;6.88;100.00;100554.19;10496867;28;20036;-78
2023/12/29 22:58:18;;;;;;;16.58;4.10;;;;;;;6.79;100.00;100559.78;10498459;28;20037;-79